Time;durP1;ratioP1;P1;durP2;ratioP2;P2;SDS_P1;SDS_P2;PMS_P1;PMS_P2;Temp;Humidity;BMP_temperature;BMP_pressure;BME280_temperature;BME280_humidity;BME280_pressure;Samples;Min_cycle;Max_cycle;Signal;HPM_P1;HPM_P2
2022/05/15 00:00:59;;;;;;;1.20;1.10;;;;;;;25.53;54.87;100658.66;4996375;28;20100;-52
2022/05/15 00:03:43;;;;;;;;;;;;;;;25.48;54.96;100653.91;4996436;28;20045;-49
2022/05/15 00:06:27;;;;;;;1.52;1.38;;;;;;;25.51;54.93;100652.63;4981376;28;19924;-51
2022/05/15 00:09:10;;;;;;;;;;;;;;;25.46;54.91;100650.56;4996380;28;20562;-49
2022/05/15 00:11:54;;;;;;;1.17;1.08;;;;;;;25.48;54.85;100653.06;4981074;28;20033;-52
2022/05/15 00:14:39;;;;;;;1.40;1.30;;;;;;;25.49;55.20;100649.25;4996050;28;20057;-55
2022/05/15 00:17:22;;;;;;;1.33;1.13;;;;;;;25.49;54.95;100649.25;4996100;28;20197;-52
2022/05/15 00:20:06;;;;;;;;;;;;;;;25.43;54.93;100644.75;4996471;28;20189;-52
2022/05/15 00:22:50;;;;;;;1.48;1.38;;;;;;;25.46;55.18;100650.56;4995570;28;19924;-49
2022/05/15 00:25:35;;;;;;;1.35;1.20;;;;;;;25.47;55.06;100645.94;4996197;28;20066;-51
2022/05/15 00:28:19;;;;;;;1.58;1.38;;;;;;;25.47;55.16;100640.47;4980861;28;20080;-51
2022/05/15 00:31:03;;;;;;;;;;;;;;;25.41;55.27;100649.59;4996493;28;20053;-52
2022/05/15 00:33:47;;;;;;;2.78;1.40;;;;;;;25.44;55.21;100649.13;4980772;28;19971;-51
2022/05/15 00:36:31;;;;;;;;;;;;;;;25.40;55.24;100646.03;4996129;28;20525;-51
2022/05/15 00:39:15;;;;;;;2.10;1.50;;;;;;;25.43;55.23;100642.00;4995958;28;20289;-52
2022/05/15 00:41:58;;;;;;;1.33;1.20;;;;;;;25.42;55.17;100634.88;4995479;28;20044;-50
2022/05/15 00:44:42;;;;;;;;;;;;;;;25.37;55.20;100632.84;4995905;28;20125;-49
2022/05/15 00:47:26;;;;;;;1.88;1.50;;;;;;;25.40;55.09;100634.25;4995545;28;19968;-53
2022/05/15 00:50:11;;;;;;;;;;;;;;;25.35;55.24;100636.88;4995640;28;20057;-52
2022/05/15 00:52:58;;;;;;;2.33;1.40;;;;;;;25.38;55.22;100641.84;4995082;28;20294;-49
2022/05/15 00:55:45;;;;;;;1.20;1.10;;;;;;;25.39;55.17;100633.44;4980352;28;20053;-50
2022/05/15 00:58:32;;;;;;;1.85;1.30;;;;;;;25.38;55.19;100639.13;4980283;28;20053;-49
2022/05/15 01:01:18;;;;;;;1.50;1.40;;;;;;;25.38;55.21;100639.97;4980449;28;20052;-53
2022/05/15 01:04:02;;;;;;;1.38;1.17;;;;;;;25.36;55.32;100644.00;4980480;28;20053;-51
2022/05/15 01:06:46;;;;;;;1.98;1.40;;;;;;;25.34;55.29;100646.94;4980116;28;20088;-54
2022/05/15 01:09:30;;;;;;;1.33;1.23;;;;;;;25.34;55.25;100641.47;4994829;28;20190;-49
2022/05/15 01:12:13;;;;;;;;;;;;;;;25.29;55.22;100637.78;4995265;28;20052;-51
2022/05/15 01:14:57;;;;;;;1.48;1.38;;;;;;;25.30;55.10;100634.81;4994732;28;19941;-51
2022/05/15 01:17:41;;;;;;;;;;;;;;;25.28;55.20;100633.38;4995087;28;20100;-52
2022/05/15 01:20:27;;;;;;;1.58;1.48;;;;;;;25.30;55.29;100628.56;4994913;28;19968;-52
2022/05/15 01:23:11;;;;;;;1.45;1.30;;;;;;;25.31;55.26;100638.41;4979606;28;20049;-49
2022/05/15 01:25:58;;;;;;;1.33;1.23;;;;;;;25.30;55.28;100640.28;4994565;28;20096;-52
2022/05/15 01:28:45;;;;;;;1.45;1.35;;;;;;;25.28;55.18;100636.97;4994486;28;20144;-52
2022/05/15 01:31:33;;;;;;;2.20;1.40;;;;;;;25.30;55.27;100634.00;4995395;28;20049;-51
2022/05/15 01:34:17;;;;;;;1.60;1.50;;;;;;;25.26;55.40;100639.09;4994373;28;20069;-51
2022/05/15 01:37:01;;;;;;;;;;;;;;;25.22;55.25;100637.06;4995026;28;20073;-49
2022/05/15 01:39:45;;;;;;;1.40;1.30;;;;;;;25.24;55.47;100637.66;4994657;28;19921;-50
2022/05/15 01:42:29;;;;;;;;;;;;;;;25.18;55.43;100628.44;4994801;28;20138;-51
2022/05/15 01:45:14;;;;;;;1.42;1.33;;;;;;;25.22;55.67;100626.94;4965830;28;19920;-54
2022/05/15 01:47:58;;;;;;;1.40;1.20;;;;;;;25.21;55.59;100636.19;4979666;28;20045;-54
2022/05/15 01:50:42;;;;;;;1.30;1.20;;;;;;;25.22;55.69;100631.59;4965811;28;20053;-49
2022/05/15 01:53:26;;;;;;;2.47;1.73;;;;;;;25.21;55.81;100635.38;4994280;28;20065;-51
2022/05/15 01:56:11;;;;;;;1.50;1.40;;;;;;;25.20;55.67;100645.47;4994071;28;20116;-49
2022/05/15 01:58:55;;;;;;;1.67;1.40;;;;;;;25.21;55.72;100646.31;4979339;28;20105;-49
2022/05/15 02:01:39;;;;;;;1.40;1.30;;;;;;;25.18;55.71;100635.78;4979570;28;20120;-53
2022/05/15 02:04:23;;;;;;;1.45;1.35;;;;;;;25.19;55.85;100643.75;4994077;28;20101;-50
2022/05/15 02:07:07;;;;;;;;;;;;;;;25.14;55.76;100642.78;4994362;28;20057;-52
2022/05/15 02:09:51;;;;;;;1.58;1.48;;;;;;;25.15;55.73;100636.25;4994199;28;19920;-52
2022/05/15 02:12:35;;;;;;;;;;;;;;;25.11;55.80;100640.53;4994596;28;20514;-48
2022/05/15 02:15:19;;;;;;;1.63;1.50;;;;;;;25.13;55.82;100638.38;4994409;28;19975;-52
2022/05/15 02:18:04;;;;;;;1.52;1.33;;;;;;;25.14;55.83;100638.13;4979145;28;20096;-49
2022/05/15 02:20:48;;;;;;;1.45;1.35;;;;;;;25.13;55.92;100633.75;4994104;28;20142;-49
2022/05/15 02:23:32;;;;;;;1.35;1.25;;;;;;;25.12;55.94;100632.09;4979347;28;20049;-51
2022/05/15 02:26:17;;;;;;;;;;;;;;;25.07;55.81;100633.84;4994196;28;20057;-52
2022/05/15 02:29:01;;;;;;;;;;;;;;;25.05;55.93;100633.25;4979778;28;19936;-53
2022/05/15 02:31:45;;;;;;;1.55;1.45;;;;;;;25.08;56.07;100638.22;4993733;28;19920;-53
2022/05/15 02:34:28;;;;;;;;;;;;;;;25.05;56.04;100630.50;4994375;28;20122;-51
2022/05/15 02:37:12;;;;;;;1.77;1.33;;;;;;;25.07;56.14;100625.66;4997971;28;19920;-52
2022/05/15 02:39:56;;;;;;;1.55;1.15;;;;;;;25.06;56.32;100622.09;4997610;28;20045;-53
2022/05/15 02:42:40;;;;;;;;;;;;;;;25.02;55.96;100622.78;4997909;28;20096;-54
2022/05/15 02:45:25;;;;;;;1.60;1.50;;;;;;;25.04;56.16;100626.13;4997540;28;20341;-49
2022/05/15 02:51:03;;;;;;;1.85;1.45;;;;;;;25.05;56.11;100625.06;4982957;28;20174;-51
2022/05/15 02:51:13;;;;;;;1.50;1.40;;;;;;;25.02;56.08;100618.16;4997720;28;20509;-50
2022/05/15 02:53:56;;;;;;;;;;;;;;;24.98;56.18;100618.84;4998043;28;20153;-54
2022/05/15 02:56:41;;;;;;;2.30;1.40;;;;;;;25.00;56.11;100622.19;4997609;28;20025;-53
2022/05/15 02:59:25;;;;;;;1.50;1.40;;;;;;;25.00;56.13;100623.00;4982544;28;20473;-52
2022/05/15 03:02:09;;;;;;;;;;;;;;;24.97;56.00;100622.63;4997549;28;20586;-49
2022/05/15 03:04:53;;;;;;;1.60;1.33;;;;;;;24.97;56.05;100626.22;4997378;28;19923;-51
2022/05/15 03:07:37;;;;;;;;;;;;;;;24.94;56.20;100626.66;4997806;28;20069;-50
2022/05/15 03:10:22;;;;;;;1.83;1.55;;;;;;;24.97;56.05;100617.19;4997296;28;19967;-49
2022/05/15 03:13:06;;;;;;;1.52;1.42;;;;;;;24.98;56.09;100624.28;4982616;28;20052;-49
2022/05/15 03:15:50;;;;;;;;;;;;;;;24.92;56.28;100626.03;4997662;28;20128;-50
2022/05/15 03:18:41;;;;;;;1.40;1.30;;;;;;;24.96;56.14;100626.41;4982234;28;20396;-55
2022/05/15 03:21:31;;;;;;;1.60;1.50;;;;;;;24.94;56.08;100623.94;4982634;28;20085;-51
2022/05/15 03:24:15;;;;;;;1.65;1.55;;;;;;;24.95;56.04;100624.75;4996982;28;20561;-49
2022/05/15 03:27:00;;;;;;;1.50;1.40;;;;;;;24.94;56.20;100625.81;4982081;28;20042;-51
2022/05/15 03:29:44;;;;;;;1.98;1.52;;;;;;;24.92;56.02;100625.22;4996967;28;20065;-53
2022/05/15 03:32:28;;;;;;;1.60;1.50;;;;;;;24.93;56.24;100626.88;4996715;28;20103;-51
2022/05/15 03:35:12;;;;;;;;;;;;;;;24.87;56.23;100627.78;4997316;28;20192;-50
2022/05/15 03:37:56;;;;;;;1.98;1.40;;;;;;;24.89;56.24;100623.78;4982123;28;19971;-52
2022/05/15 03:40:39;;;;;;;;;;;;;;;24.85;56.24;100638.09;4997138;28;20104;-52
2022/05/15 03:43:23;;;;;;;1.63;1.52;;;;;;;24.88;56.01;100643.09;4996627;28;19972;-52
2022/05/15 03:46:07;;;;;;;1.40;1.30;;;;;;;24.90;56.03;100641.81;4996670;28;20426;-51
2022/05/15 03:48:52;;;;;;;;;;;;;;;24.83;56.09;100643.78;4996628;28;20045;-52
2022/05/15 03:51:36;;;;;;;1.50;1.40;;;;;;;24.84;56.28;100640.00;4996298;28;20400;-53
2022/05/15 03:54:20;;;;;;;1.70;1.50;;;;;;;24.86;56.18;100647.94;4996822;28;20101;-52
2022/05/15 03:57:04;;;;;;;;;;;;;;;24.81;55.93;100636.91;4996947;28;20493;-51
2022/05/15 03:59:47;;;;;;;1.63;1.20;;;;;;;24.82;55.86;100631.19;4981494;28;19964;-50
2022/05/15 04:02:31;;;;;;;2.40;1.60;;;;;;;24.83;56.06;100623.88;4996332;28;20363;-52
2022/05/15 04:05:15;;;;;;;1.65;1.55;;;;;;;24.84;56.10;100622.81;4996633;28;20100;-49
2022/05/15 04:07:59;;;;;;;;;;;;;;;24.79;56.17;100628.94;4996709;28;20053;-49
2022/05/15 04:10:43;;;;;;;1.85;1.40;;;;;;;24.81;56.09;100629.53;4996010;28;19979;-50
2022/05/15 04:13:27;;;;;;;;;;;;;;;24.79;56.11;100625.38;4996280;28;20116;-53
2022/05/15 04:16:11;;;;;;;1.38;1.25;;;;;;;24.81;56.19;100615.09;4995946;28;19967;-55
2022/05/15 04:18:55;;;;;;;1.70;1.60;;;;;;;24.80;56.05;100621.59;4996148;28;20088;-51
2022/05/15 04:21:40;;;;;;;2.08;1.38;;;;;;;24.81;56.03;100617.81;4995984;28;20050;-53
2022/05/15 04:24:24;;;;;;;1.70;1.40;;;;;;;24.81;55.96;100632.25;4995689;28;20049;-49
2022/05/15 04:27:08;;;;;;;1.63;1.52;;;;;;;24.83;55.92;100618.41;4981321;28;20049;-52
2022/05/15 04:29:53;;;;;;;1.70;1.60;;;;;;;24.82;56.03;100620.28;4995623;28;20101;-51
2022/05/15 04:32:37;;;;;;;1.58;1.48;;;;;;;24.83;55.92;100634.78;4980621;28;20469;-53
2022/05/15 04:35:22;;;;;;;2.13;1.45;;;;;;;24.83;55.94;100632.03;4981153;28;20062;-49
2022/05/15 04:38:10;;;;;;;1.50;1.40;;;;;;;24.84;55.63;100626.38;4995437;28;20050;-52
2022/05/15 04:40:54;;;;;;;1.52;1.42;;;;;;;24.82;55.69;100620.28;4995404;28;20049;-51
2022/05/15 04:43:38;;;;;;;;;;;;;;;24.79;55.57;100625.38;4981259;28;20421;-53
2022/05/15 04:46:25;;;;;;;1.60;1.50;;;;;;;24.81;55.58;100634.16;4995599;28;20290;-49
2022/05/15 04:49:09;;;;;;;2.92;1.77;;;;;;;24.83;55.49;100632.03;4995443;28;20045;-49
2022/05/15 04:51:53;;;;;;;;;;;;;;;24.78;55.53;100634.59;4995809;28;20557;-53
2022/05/15 04:54:38;;;;;;;1.38;1.25;;;;;;;24.82;55.28;100630.38;4980893;28;19924;-51
2022/05/15 04:57:21;;;;;;;1.85;1.60;;;;;;;24.82;55.27;100635.84;4980360;28;20065;-51
2022/05/15 05:00:07;;;;;;;;;;;;;;;24.79;55.36;100641.75;4994778;28;20050;-49
2022/05/15 05:02:51;;;;;;;1.38;1.27;;;;;;;24.81;55.33;100645.91;4994821;28;19936;-52
2022/05/15 05:05:35;;;;;;;;;;;;;;;24.79;55.16;100639.03;4995332;28;20057;-52
2022/05/15 05:08:19;;;;;;;1.45;1.35;;;;;;;24.82;55.26;100641.28;4994855;28;19968;-49
2022/05/15 05:11:03;;;;;;;;;;;;;;;24.80;55.24;100643.41;4995771;28;20104;-49
2022/05/15 05:13:47;;;;;;;1.50;1.40;;;;;;;24.82;55.25;100646.75;4980311;28;20049;-55
2022/05/15 05:16:33;;;;;;;;;;;;;;;24.79;55.01;100641.75;4995213;28;20049;-50
2022/05/15 05:19:17;;;;;;;1.50;1.40;;;;;;;24.82;55.13;100641.28;4994680;28;19920;-52
2022/05/15 05:22:00;;;;;;;1.92;1.75;;;;;;;24.83;55.16;100638.31;4994809;28;20053;-52
2022/05/15 05:24:44;;;;;;;2.13;1.40;;;;;;;24.82;55.08;100647.56;4979771;28;20117;-52
2022/05/15 05:27:28;;;;;;;1.60;1.50;;;;;;;24.84;54.92;100647.34;4994512;28;20425;-49
2022/05/15 05:30:14;;;;;;;;;;;;;;;24.81;54.75;100645.09;4966801;28;20049;-52
2022/05/15 05:32:58;;;;;;;1.25;1.23;;;;;;;24.83;54.84;100643.78;4994596;28;19960;-49
2022/05/15 05:35:43;;;;;;;1.92;1.67;;;;;;;24.85;54.84;100651.75;4994427;28;20045;-50
2022/05/15 05:38:27;;;;;;;2.38;1.77;;;;;;;24.86;54.71;100653.41;4979937;28;20057;-49
2022/05/15 05:41:11;;;;;;;1.30;1.20;;;;;;;24.87;54.80;100649.59;4994269;28;20064;-49
2022/05/15 05:43:55;;;;;;;1.55;1.45;;;;;;;24.87;54.83;100653.19;4979907;28;20105;-51
2022/05/15 05:46:39;;;;;;;;;;;;;;;24.84;54.90;100650.91;4994910;28;20462;-51
2022/05/15 05:49:23;;;;;;;1.50;1.40;;;;;;;24.88;54.71;100656.72;4994512;28;20021;-50
2022/05/15 05:52:07;;;;;;;;;;;;;;;24.84;54.69;100645.47;4994511;28;20113;-52
2022/05/15 05:54:51;;;;;;;1.95;1.55;;;;;;;24.87;54.73;100647.72;4994374;28;19920;-52
2022/05/15 05:57:36;;;;;;;1.50;1.40;;;;;;;24.89;54.56;100648.31;4994602;28;20049;-49
2022/05/15 06:00:24;;;;;;;1.98;1.42;;;;;;;24.91;54.69;100645.38;4979490;28;20049;-51
2022/05/15 06:06:11;;;;;;;1.52;1.42;;;;;;;24.89;54.65;100636.59;4994256;28;20045;-50
2022/05/15 06:08:55;;;;;;;;;;;;;;;24.87;54.63;100641.44;4994359;28;20053;-49
2022/05/15 06:11:39;;;;;;;1.65;1.30;;;;;;;24.90;54.69;100643.72;4993820;28;19921;-52
2022/05/15 06:14:23;;;;;;;;;;;;;;;24.86;54.61;100640.59;4994594;28;20041;-50
2022/05/15 06:17:07;;;;;;;1.40;1.30;;;;;;;24.91;54.65;100637.19;4994039;28;19924;-53
2022/05/15 06:19:51;;;;;;;1.60;1.50;;;;;;;24.93;54.58;100646.78;4993822;28;20399;-49
2022/05/15 06:22:36;;;;;;;1.50;1.40;;;;;;;24.94;54.56;100655.81;4994030;28;20053;-49
2022/05/15 06:25:19;;;;;;;1.60;1.50;;;;;;;24.95;54.70;100638.41;4993796;28;20036;-51
2022/05/15 06:28:04;;;;;;;;;;;;;;;24.90;54.53;100647.25;4994717;28;20097;-51
2022/05/15 06:30:48;;;;;;;1.30;1.20;;;;;;;24.95;54.57;100652.03;4993762;28;19924;-50
2022/05/15 06:33:32;;;;;;;1.80;1.70;;;;;;;24.96;54.39;100642.78;4993802;28;20150;-51
2022/05/15 06:36:16;;;;;;;;;;;;;;;24.93;54.62;100654.16;4994117;28;20418;-49
2022/05/15 06:38:59;;;;;;;1.77;1.67;;;;;;;24.95;54.52;100652.03;4994193;28;20320;-50
2022/05/15 06:41:46;;;;;;;1.45;1.33;;;;;;;24.96;54.39;100642.78;4993560;28;20310;-51
2022/05/15 06:44:29;;;;;;;1.40;1.30;;;;;;;24.96;54.64;100643.63;4993538;28;20045;-49
2022/05/15 06:47:13;;;;;;;1.65;1.50;;;;;;;24.97;54.57;100639.84;4993887;28;20104;-51
2022/05/15 06:49:58;;;;;;;1.48;1.38;;;;;;;25.00;54.27;100638.56;4993823;28;20049;-51
2022/05/15 06:52:42;;;;;;;1.60;1.50;;;;;;;25.00;54.25;100639.38;4993556;28;20112;-49
2022/05/15 06:55:26;;;;;;;;;;;;;;;24.97;54.45;100639.00;4994452;28;20535;-52
2022/05/15 06:58:10;;;;;;;1.60;1.50;;;;;;;24.99;54.39;100643.16;4993542;28;20026;-50
2022/05/15 07:00:54;;;;;;;2.25;1.50;;;;;;;25.01;54.32;100629.31;4993678;28;20049;-52
2022/05/15 07:03:38;;;;;;;;;;;;;;;24.98;54.25;100630.59;4993799;28;20054;-51
2022/05/15 07:06:22;;;;;;;3.10;1.50;;;;;;;25.01;54.28;100637.50;4993443;28;19988;-51
2022/05/15 07:09:06;;;;;;;1.83;1.63;;;;;;;25.04;54.32;100628.84;4978890;28;20104;-53
2022/05/15 07:11:50;;;;;;;2.00;1.60;;;;;;;25.04;54.20;100632.44;4993745;28;20415;-51
2022/05/15 07:14:35;;;;;;;;;;;;;;;25.01;54.29;100634.78;4993777;28;20053;-50
2022/05/15 07:17:19;;;;;;;1.55;1.40;;;;;;;25.04;54.03;100634.31;4978984;28;19921;-52
2022/05/15 07:20:03;;;;;;;;;;;;;;;25.01;54.13;100632.03;4993825;28;20065;-51
2022/05/15 07:22:47;;;;;;;1.60;1.50;;;;;;;25.04;54.16;100632.44;4980277;28;20342;-54
2022/05/15 07:25:31;;;;;;;1.50;1.40;;;;;;;25.05;54.11;100630.50;4997129;28;20049;-49
2022/05/15 07:28:15;;;;;;;1.60;1.50;;;;;;;25.07;53.92;100631.13;4996761;28;20112;-49
2022/05/15 07:30:59;;;;;;;1.85;1.75;;;;;;;25.07;53.89;100629.22;4996916;28;20049;-52
2022/05/15 07:33:43;;;;;;;1.60;1.40;;;;;;;25.08;53.73;100630.03;4998116;28;20093;-49
2022/05/15 07:36:27;;;;;;;1.83;1.70;;;;;;;25.07;53.79;100631.97;4996635;28;20053;-50
2022/05/15 07:39:11;;;;;;;;;;;;;;;25.03;53.89;100621.72;4982784;28;20073;-49
2022/05/15 07:41:55;;;;;;;1.50;1.40;;;;;;;25.06;53.85;100633.03;4996678;28;19979;-49
2022/05/15 07:44:39;;;;;;;;;;;;;;;25.04;53.91;100626.13;4997117;28;20159;-49
2022/05/15 07:47:22;;;;;;;1.60;1.50;;;;;;;25.07;53.95;100629.22;4996714;28;19920;-50
2022/05/15 07:50:07;;;;;;;;;;;;;;;25.03;53.99;100636.19;4997076;28;20189;-50
2022/05/15 07:52:51;;;;;;;1.60;1.50;;;;;;;25.07;54.07;100633.84;4997079;28;19921;-50
2022/05/15 07:55:34;;;;;;;;;;;;;;;25.05;53.92;100625.06;4996787;28;20100;-51
2022/05/15 07:58:18;;;;;;;1.88;1.70;;;;;;;25.08;53.88;100621.84;4996230;28;20432;-52
2022/05/15 08:01:04;;;;;;;;;;;;;;;25.05;54.06;100619.59;4996595;28;20097;-51
2022/05/15 08:03:49;;;;;;;1.63;1.40;;;;;;;25.08;54.09;100619.13;4996058;28;19925;-52
2022/05/15 08:09:35;;;;;;;1.60;1.50;;;;;;;25.08;53.77;100617.25;4996312;28;20180;-53
2022/05/15 08:12:20;;;;;;;;;;;;;;;25.07;53.99;100618.31;4996598;28;20145;-52
2022/05/15 08:15:06;;;;;;;1.88;1.60;;;;;;;25.12;54.02;100614.91;4996198;28;20020;-49
2022/05/15 08:17:50;;;;;;;1.60;1.50;;;;;;;25.10;53.92;100614.31;4996138;28;20049;-53
2022/05/15 08:23:54;;;;;;;1.85;1.73;;;;;;;25.09;53.91;100613.47;4962754;28;19923;-49
2022/05/15 08:26:38;;;;;;;2.08;1.88;;;;;;;25.09;53.79;100618.91;4995971;28;20053;-53
2022/05/15 08:29:21;;;;;;;;;;;;;;;25.05;54.06;100612.25;4996321;28;20052;-49
2022/05/15 08:32:07;;;;;;;2.05;1.65;;;;;;;25.10;54.08;100606.13;4995529;28;19921;-51
2022/05/15 08:34:51;;;;;;;1.60;1.50;;;;;;;25.10;54.02;100601.47;4995577;28;20089;-48
2022/05/15 08:37:34;;;;;;;;;;;;;;;25.08;54.13;100602.75;4996124;28;20621;-50
2022/05/15 08:40:24;;;;;;;2.33;1.60;;;;;;;25.10;54.13;100597.94;4995703;28;19924;-51
2022/05/15 08:43:10;;;;;;;1.30;1.20;;;;;;;25.13;54.00;100594.72;4980467;28;20291;-50
2022/05/15 08:46:03;;;;;;;1.50;1.40;;;;;;;25.14;53.84;100601.84;4995318;28;20049;-52
2022/05/15 08:48:47;;;;;;;2.20;1.60;;;;;;;25.13;53.99;100595.56;4995274;28;20045;-51
2022/05/15 08:51:33;;;;;;;1.88;1.70;;;;;;;25.16;53.91;100597.00;4980790;28;20133;-51
2022/05/15 08:54:16;;;;;;;1.60;1.50;;;;;;;25.14;53.94;100602.66;4995159;28;20049;-54
2022/05/15 08:57:00;;;;;;;;;;;;;;;25.11;53.78;100597.69;4980812;28;20422;-55
2022/05/15 08:59:51;;;;;;;1.77;1.42;;;;;;;25.13;53.87;100598.28;4995074;28;20000;-50
2022/05/15 09:02:36;;;;;;;1.85;1.73;;;;;;;25.13;54.00;100598.28;4980276;28;20132;-49
2022/05/15 09:05:20;;;;;;;1.95;1.60;;;;;;;25.16;54.16;100597.00;4980511;28;20410;-54
2022/05/15 09:08:11;;;;;;;2.00;1.80;;;;;;;25.15;53.97;100596.19;4995007;28;20048;-53
2022/05/15 09:11:06;;;;;;;1.88;1.67;;;;;;;25.16;53.99;100594.28;4994816;28;20052;-49
2022/05/15 09:13:55;;;;;;;1.85;1.52;;;;;;;25.18;53.80;100592.97;4994999;28;20169;-52
2022/05/15 09:16:43;;;;;;;1.90;1.70;;;;;;;25.17;53.94;100590.47;4980035;28;20410;-52
2022/05/15 09:19:27;;;;;;;2.33;1.60;;;;;;;25.19;53.84;100594.66;4980024;28;20108;-49
2022/05/15 09:22:13;;;;;;;2.50;1.80;;;;;;;25.21;53.93;100589.00;4994705;28;20100;-51
2022/05/15 09:24:57;;;;;;;1.75;1.65;;;;;;;25.21;53.85;100587.09;4994585;28;20473;-52
2022/05/15 09:27:55;;;;;;;;;;;;;;;25.18;53.85;100592.13;4995221;28;20210;-51
2022/05/15 09:30:46;;;;;;;1.63;1.50;;;;;;;25.23;53.83;100592.31;4994668;28;19921;-53
2022/05/15 09:33:34;;;;;;;1.40;1.30;;;;;;;25.24;53.91;100591.25;4994269;28;20064;-51
2022/05/15 09:36:33;;;;;;;1.60;1.50;;;;;;;25.23;53.64;100584.94;4980228;28;20414;-50
2022/05/15 09:39:17;;;;;;;1.50;1.40;;;;;;;25.24;53.88;100580.34;4994387;28;20574;-49
2022/05/15 09:45:27;;;;;;;2.83;1.42;;;;;;;25.26;53.70;100583.66;4993733;28;20096;-55
2022/05/15 09:48:12;;;;;;;1.70;1.60;;;;;;;25.27;53.72;100579.88;4994492;28;20052;-51
2022/05/15 09:51:00;;;;;;;2.20;1.67;;;;;;;25.29;53.59;100577.72;4994307;28;20422;-52
2022/05/15 09:53:46;;;;;;;2.03;1.75;;;;;;;25.30;53.71;100569.31;4994138;28;20496;-52
2022/05/15 09:56:34;;;;;;;1.67;1.58;;;;;;;25.31;53.67;100578.34;4979531;28;20053;-53
2022/05/15 09:59:26;;;;;;;1.70;1.58;;;;;;;25.32;53.55;100572.66;4994535;28;20057;-53
2022/05/15 10:02:22;;;;;;;2.22;1.48;;;;;;;25.34;53.63;100569.69;4979246;28;20041;-51
2022/05/15 10:05:26;;;;;;;3.20;1.60;;;;;;;25.32;53.56;100556.28;4979546;28;20104;-54
2022/05/15 10:08:25;;;;;;;1.67;1.40;;;;;;;25.35;53.63;100558.56;4979308;28;20052;-53
2022/05/15 10:11:16;;;;;;;1.60;1.50;;;;;;;25.37;53.70;100552.84;4979670;28;20189;-52
2022/05/15 10:14:01;;;;;;;1.70;1.60;;;;;;;25.36;53.70;100543.84;4965827;28;20402;-52
2022/05/15 10:16:49;;;;;;;2.10;1.30;;;;;;;25.39;53.41;100548.84;4979214;28;20092;-49
2022/05/15 10:19:41;;;;;;;1.88;1.50;;;;;;;25.40;53.42;100541.47;4979441;28;20414;-51
2022/05/15 10:22:44;;;;;;;1.60;1.50;;;;;;;25.40;53.53;100539.56;4979618;28;20045;-49
2022/05/15 10:25:34;;;;;;;1.65;1.55;;;;;;;25.43;53.46;100541.00;4993782;28;20143;-52
2022/05/15 10:28:30;;;;;;;1.70;1.60;;;;;;;25.42;53.43;100529.25;4979041;28;20160;-51
2022/05/15 10:31:18;;;;;;;1.50;1.40;;;;;;;25.44;53.34;100526.28;4979265;28;20053;-52
2022/05/15 10:34:08;;;;;;;1.65;1.55;;;;;;;25.44;53.36;100526.28;4979004;28;20100;-49
2022/05/15 10:37:13;;;;;;;1.42;1.33;;;;;;;25.47;53.31;100525.81;4979246;28;20048;-51
2022/05/15 10:40:18;;;;;;;1.40;1.30;;;;;;;25.47;53.22;100514.91;4993646;28;20045;-52
2022/05/15 10:43:07;;;;;;;1.40;1.30;;;;;;;25.48;53.22;100519.28;4993496;28;20125;-49
2022/05/15 10:46:00;;;;;;;2.25;1.60;;;;;;;25.48;53.13;100516.56;4993871;28;20049;-53
2022/05/15 10:48:53;;;;;;;1.50;1.40;;;;;;;25.49;53.12;100508.16;4978917;28;20050;-49
2022/05/15 10:51:55;;;;;;;1.92;1.50;;;;;;;25.50;53.09;100514.41;4978986;28;20518;-50
2022/05/15 10:58:14;;;;;;;1.40;1.30;;;;;;;25.51;53.06;100506.00;4995955;28;20398;-48
2022/05/15 11:01:35;;;;;;;1.58;1.48;;;;;;;25.53;53.13;100495.69;4997415;28;20057;-54
2022/05/15 11:04:49;;;;;;;1.65;1.55;;;;;;;25.53;53.06;100494.88;4997442;28;20052;-49
2022/05/15 11:07:36;;;;;;;;;;;;;;;25.50;53.02;100481.66;4969545;28;20463;-50
2022/05/15 11:10:27;;;;;;;2.47;1.50;;;;;;;25.56;52.89;100481.56;4997632;28;19921;-51
2022/05/15 11:13:14;;;;;;;1.40;1.30;;;;;;;25.59;52.84;100485.72;4982541;28;20401;-53
2022/05/15 11:16:11;;;;;;;1.60;1.50;;;;;;;25.61;52.73;100472.69;4997287;28;20173;-50
2022/05/15 11:19:11;;;;;;;1.60;1.40;;;;;;;25.64;52.72;100483.13;4982593;28;20080;-52
2022/05/15 11:21:58;;;;;;;1.90;1.50;;;;;;;25.65;52.65;100477.41;4997038;28;20046;-51
2022/05/15 11:25:05;;;;;;;1.60;1.35;;;;;;;25.69;52.53;100475.03;4997062;28;20049;-51
2022/05/15 11:27:55;;;;;;;1.50;1.40;;;;;;;25.70;52.64;100472.06;4997120;28;20084;-49
2022/05/15 11:30:42;;;;;;;1.70;1.60;;;;;;;25.74;52.31;100472.44;4997034;28;20084;-52
2022/05/15 11:34:05;;;;;;;1.75;1.50;;;;;;;25.74;52.23;100470.53;4982065;28;20037;-54
2022/05/15 11:36:50;;;;;;;1.85;1.50;;;;;;;25.76;52.36;100460.22;4996626;28;20057;-54
2022/05/15 11:39:58;;;;;;;1.58;1.48;;;;;;;25.78;52.15;100463.53;4996585;28;20173;-51
2022/05/15 11:42:41;;;;;;;1.60;1.50;;;;;;;25.79;52.22;100458.88;4996524;28;20080;-49
2022/05/15 11:45:29;;;;;;;;;;;;;;;25.78;52.08;100451.78;4997159;28;20454;-49
2022/05/15 11:48:23;;;;;;;2.00;1.50;;;;;;;25.85;52.02;100455.22;4996455;28;19960;-50
2022/05/15 11:51:13;;;;;;;1.40;1.30;;;;;;;25.90;51.87;100445.28;4996325;28;20052;-52
2022/05/15 11:54:08;;;;;;;1.60;1.50;;;;;;;25.94;51.68;100440.97;4996306;28;20534;-55
2022/05/15 11:56:54;;;;;;;2.35;1.50;;;;;;;25.97;51.62;100440.53;4968304;28;20049;-53
2022/05/15 11:59:51;;;;;;;1.60;1.30;;;;;;;26.00;51.55;100434.56;4981749;28;20046;-53
2022/05/15 12:02:35;;;;;;;1.65;1.50;;;;;;;26.03;51.38;100425.06;4967983;28;20061;-53
2022/05/15 12:05:30;;;;;;;2.15;1.60;;;;;;;26.07;51.42;100432.56;4996357;28;20460;-52
2022/05/15 12:08:16;;;;;;;1.52;1.33;;;;;;;26.12;51.10;100431.81;4996058;28;20054;-51
2022/05/15 12:11:26;;;;;;;1.52;1.33;;;;;;;26.15;50.96;100420.41;4996284;28;20410;-49
2022/05/15 12:14:32;;;;;;;1.88;1.77;;;;;;;26.20;50.75;100424.06;4996250;28;20133;-51
2022/05/15 12:17:29;;;;;;;1.30;1.20;;;;;;;26.25;50.85;100426.91;4996445;28;20053;-49
2022/05/15 12:20:18;;;;;;;2.33;1.63;;;;;;;26.27;50.54;100418.47;4996349;28;20053;-49
2022/05/15 12:23:06;;;;;;;2.38;1.80;;;;;;;26.29;50.64;100421.78;4995911;28;20049;-51
2022/05/15 12:25:57;;;;;;;1.67;1.48;;;;;;;26.29;50.60;100406.22;4995965;28;20569;-51
2022/05/15 12:29:06;;;;;;;1.75;1.63;;;;;;;26.33;50.70;100417.53;4995894;28;20041;-51
2022/05/15 12:31:50;;;;;;;1.60;1.50;;;;;;;26.33;50.52;100412.88;4980948;28;20049;-51
2022/05/15 12:34:40;;;;;;;3.13;1.40;;;;;;;26.36;50.26;100409.63;4995578;28;20115;-54
2022/05/15 12:37:29;;;;;;;1.50;1.40;;;;;;;26.41;50.07;100403.44;4981023;28;20076;-51
2022/05/15 12:40:14;;;;;;;1.55;1.42;;;;;;;26.45;49.82;100404.63;4995733;28;20513;-55
2022/05/15 12:42:58;;;;;;;1.60;1.50;;;;;;;26.48;49.90;100395.94;4967203;28;20164;-50
2022/05/15 12:45:42;;;;;;;1.40;1.30;;;;;;;26.52;49.66;100400.72;4995626;28;20135;-50
2022/05/15 12:48:28;;;;;;;;;;;;;;;26.53;49.66;100401.56;4981546;28;20501;-54
2022/05/15 12:51:14;;;;;;;1.50;1.40;;;;;;;26.58;49.67;100393.44;4995191;28;20028;-51
2022/05/15 12:54:00;;;;;;;2.25;1.50;;;;;;;26.64;49.50;100392.47;4995748;28;20108;-50
2022/05/15 12:56:44;;;;;;;1.65;1.40;;;;;;;26.66;49.36;100387.56;4995229;28;20053;-50
2022/05/15 12:59:28;;;;;;;;;;;;;;;26.66;49.29;100380.19;4995808;28;20565;-51
2022/05/15 13:02:17;;;;;;;;;;;;;;;26.68;49.19;100385.41;4995711;28;19960;-52
2022/05/15 13:05:05;;;;;;;1.65;1.50;;;;;;;26.75;49.31;100388.84;4995139;28;19924;-51
2022/05/15 13:07:54;;;;;;;1.45;1.35;;;;;;;26.80;49.04;100381.56;4980240;28;20057;-54
2022/05/15 13:10:44;;;;;;;1.50;1.40;;;;;;;26.83;48.99;100381.06;4995227;28;20134;-51
2022/05/15 13:13:36;;;;;;;1.52;1.42;;;;;;;26.86;48.84;100364.13;4980649;28;20048;-54
2022/05/15 13:16:26;;;;;;;1.48;1.23;;;;;;;26.90;48.61;100367.22;4995162;28;20553;-52
2022/05/15 13:19:13;;;;;;;1.48;1.38;;;;;;;26.92;48.69;100374.91;4994489;28;20046;-53
2022/05/15 13:21:59;;;;;;;1.55;1.45;;;;;;;26.95;48.45;100367.31;4980026;28;20124;-50
2022/05/15 13:24:44;;;;;;;1.65;1.40;;;;;;;26.98;48.51;100365.72;4966750;28;20049;-52
2022/05/15 13:27:28;;;;;;;1.98;1.30;;;;;;;27.01;48.13;100356.19;4980479;28;20103;-50